Woodland, Michigan
Current Conditions -  °F | °C
As of 3:14 PM on Sunday 21 Dec 2014 (Local Time) from KY70 Reporting Station
Overcast Overcast  
Wind Chill: 27°   Ceiling: 3300
Heat Index: 34°   Visibility: 7mi
Dew Point: 27°   Wind: 9mph
Humidity: 74%   Direction: 170°S
Pressure: 30.16"   Gusts: NA
Location:  42.73°N, 85.13°W
Report Text: KY70 212014Z AUTO 17008KT 7SM BKN033 OVC050 01/M03 A3016 RMK AO2 T00121030
Loading
Personal Weather Stations






























Interactive Weather Map New forecast layout! Learn more

10-Day Weather Forecast

Advertisements
Track Severe Weather on mobile